Κάμερα προς Χιονοδρομικό webcam facing ski center


Κάμερα προς Νότο webcam facing south


Ραντάρ Κεραυνών blitzortung!


Ραντάρ Βροχής rain snow radar


Άλλες σελίδες καιρού:

Hotel Skamnos

Arachova Weather Station

Skamnos Weather Station

Skamnos Weather2

Arachova Weather2

WU Skamnos

WU Arachova


Γειτονικοί σταθμοί:

Parnassos Snow Forecast

Parnassos Snow Report

Kelaria 1950m

Kelaria 2240m

Fterolaka 2080m



No particular awareness of the weather is required.    There are no Weather-warnings

Εκθέσεις METAR

  
1089 - Arachova Meteo, Greece
Distance from station: Ν 10km
Updated: 20-09-2017 14:04
Μερικώς νεφελώδης
Μερικώς νεφελώδης  
 Ανεμος από ΔΝΔ
'Ανεμος: ΔΝΔ 9 km/h
Θερμοκρασία:  25°C
Σημείο Δρόσου:  13°C
Υγρασία:  47%
Βαρόμετρο:  1006 hPa
Νεφελώδης:  Μερικώς νεφελώδης
Visibility:  10 km
Cloud details:  Μερικώς νεφελώδης 1433 m
2017/09/20 11:04 1089 201104Z 24705KT 9999 SCT047 25/13 Q1006
1155 - Arachova2, Greece
Distance from station: Ν 10km
Updated: 20-09-2017 14:04
Μερικώς νεφελώδης
Μερικώς νεφελώδης  
 Ανεμος από ΝΔ
'Ανεμος: ΝΔ 6 km/h
Θερμοκρασία:  24°C
Σημείο Δρόσου:  13°C
Υγρασία:  50%
Βαρόμετρο:  1008 hPa
Νεφελώδης:  Μερικώς νεφελώδης
Visibility:  10 km
Cloud details:  Μερικώς νεφελώδης 1280 m
2017/09/20 11:04 1155 201104Z 22503KT 9999 SCT042 24/13 Q1008
1184 - Arachova VillaFiloxenia, Greece
Distance from station: Ν 10km
Updated: 09-05-2017 15:04
NOT Current
Μερικώς νεφελώδης
Μερικώς νεφελώδης  
 Ανεμος από calm
'Ανεμος: Άπνοια
Θερμοκρασία:  17°C
Σημείο Δρόσου:  9°C
Υγρασία:  59%
Βαρόμετρο:  1007 hPa
Νεφελώδης:  Μερικώς νεφελώδης
Visibility:  10 km
Cloud details:  Μερικώς νεφελώδης 1006 m
2017/05/09 12:04 1184 091204Z 00000KT 9999 SCT033 17/09 Q1007
1250 - Parnassos Kelaria 1950m, Greece
Distance from station: Α 3km
Updated: 20-09-2017 14:04
Μερικώς νεφελώδης
Μερικώς νεφελώδης  
 Ανεμος από ΝΔ
'Ανεμος: ΝΔ 15 km/h
Θερμοκρασία:  13°C
Σημείο Δρόσου:  9°C
Υγρασία:  77%
Βαρόμετρο:  1008 hPa
Νεφελώδης:  Μερικώς νεφελώδης
Visibility:  8 km
Cloud details:  Μερικώς νεφελώδης 488 m
2017/09/20 11:04 1250 201104Z 22508KT 8000 SCT016 13/09 Q1008
1126 - Parnassos Fterolaka 2080m, Greece
Distance from station: Α 3km
Updated: 21-03-2015 01:04
NOT Current
Λίγα σύννεφα
Λίγα σύννεφα  
 Ανεμος από calm
'Ανεμος: Άπνοια
Θερμοκρασία:  -11°C
Σημείο Δρόσου:  -11°C
Υγρασία:  100%
Βαρόμετρο:  1019 hPa
Νεφελώδης:  Λίγα σύννεφα
Visibility:  6 km
Cloud details:  Λίγα σύννεφα 305 m
2015/03/20 23:04 1126 202304Z 00000KT 6000 FEW010 M11/M11 Q1019
1382 - Parnassos Helcules 2240m, Greece
Distance from station: Α 3km
Updated: 20-04-2015 13:20
NOT Current
Ομίχλη
Ομίχλη  
 Ανεμος από ΝΔ
'Ανεμος: ΝΔ 7 km/h
Θερμοκρασία:  1°C
Wind Chill:  -2°C
Σημείο Δρόσου:  1°C
Υγρασία:  100%
Βαρόμετρο:  1009 hPa
Περίληψη:  Ομίχλη
Visibility:  5 km
2015/04/20 10:20 1382 201020Z 22504KT 5000 FG 01/01 Q1009
1219 - Anrikyra, Greece
Distance from station: Ν 40km
Updated: 20-09-2017 14:04
Αίθριος
Αίθριος  
 Ανεμος από ΔΝΔ
'Ανεμος: ΔΝΔ 20 km/h
Θερμοκρασία:  28°C
Δείκτης ζέστης:  28°C
Σημείο Δρόσου:  16°C
Υγρασία:  48%
Βαρόμετρο:  1007 hPa
Νεφελώδης:  Αίθριος
Visibility:  10 km
2017/09/20 11:04 1219 201104Z 24711KT 9999 SKC 28/16 Q1007
1015 - Galaxeidi, Greece
Distance from station: Ν 40km
Updated: 20-09-2017 14:04
Αίθριος
Αίθριος  
 Ανεμος από Δ
'Ανεμος: Δ 20 km/h
Θερμοκρασία:  31°C
Σημείο Δρόσου:  15°C
Υγρασία:  38%
Βαρόμετρο:  1017 hPa
Νεφελώδης:  Αίθριος
Visibility:  10 km
2017/09/20 11:04 1015 201104Z 27011KT 9999 SKC 31/15 Q1017
1088 - Amfikleia, Greece
Distance from station: Β 10km
Updated: 20-09-2017 14:04
Αίθριος
Αίθριος  
 Ανεμος από ΔΒΔ
'Ανεμος: ΔΒΔ 2 km/h
Θερμοκρασία:  31°C
Σημείο Δρόσου:  15°C
Υγρασία:  38%
Βαρόμετρο:  1007 hPa
Νεφελώδης:  Αίθριος
Visibility:  10 km
2017/09/20 11:04 1088 201104Z 29201KT 9999 SKC 31/15 Q1007
1337 - Polydroso, Greece
Distance from station: Β 10km
Updated: 20-09-2017 14:04
Μερικώς νεφελώδης
Μερικώς νεφελώδης  
 Ανεμος από ΝΑ
'Ανεμος: ΝΑ 2 km/h
Θερμοκρασία:  30°C
Δείκτης ζέστης:  29°C
Σημείο Δρόσου:  15°C
Υγρασία:  40%
Βαρόμετρο:  1007 hPa
Νεφελώδης:  Μερικώς νεφελώδης
Visibility:  10 km
Cloud details:  Μερικώς νεφελώδης 1859 m
2017/09/20 11:04 1337 201104Z 13501KT 9999 SCT061 30/15 Q1007

Αρχικά scripts από  Saratoga-weather.org Adapted for the template by  Weerstation Leuven